Time;durP1;ratioP1;P1;durP2;ratioP2;P2;SDS_P1;SDS_P2;PMS_P1;PMS_P2;Temp;Humidity;BMP_temperature;BMP_pressure;BME280_temperature;BME280_humidity;BME280_pressure;Samples;Min_cycle;Max_cycle;Signal;HPM_P1;HPM_P2
2024/03/24 00:00:39;;;;;;;2.50;2.23;;;3.70;99.90;;;;;;5039650;28;20203;-61
2024/03/24 00:03:05;;;;;;;4.03;1.83;;;3.70;99.90;;;;;;5045909;28;20210;-60
2024/03/24 00:05:30;;;;;;;1.90;1.80;;;3.70;99.90;;;;;;5026200;28;20190;-60
2024/03/24 00:07:56;;;;;;;2.43;1.93;;;3.70;99.90;;;;;;5041871;28;20252;-60
2024/03/24 00:10:21;;;;;;;2.30;1.90;;;3.70;99.90;;;;;;5045313;28;20274;-61
2024/03/24 00:12:48;;;;;;;2.53;1.83;;;3.60;99.90;;;;;;5044105;28;20274;-61
2024/03/24 00:15:14;;;;;;;2.93;1.90;;;3.60;99.90;;;;;;5043214;28;20186;-60
2024/03/24 00:17:39;;;;;;;2.07;1.87;;;3.50;99.90;;;;;;5046193;28;20433;-60
2024/03/24 00:20:06;;;;;;;3.30;2.10;;;3.50;99.90;;;;;;5042878;28;20202;-60
2024/03/24 00:22:31;;;;;;;9.20;4.57;;;3.50;99.90;;;;;;5039218;28;20229;-61
2024/03/24 00:24:57;;;;;;;2.30;1.60;;;3.50;99.90;;;;;;5044732;28;20427;-62
2024/03/24 00:27:22;;;;;;;3.27;1.80;;;3.60;99.90;;;;;;5027173;28;20223;-60
2024/03/24 00:29:48;;;;;;;3.47;2.03;;;3.60;99.90;;;;;;5046328;28;20172;-60
2024/03/24 00:32:14;;;;;;;4.10;1.90;;;3.60;99.90;;;;;;5040746;28;20179;-62
2024/03/24 00:34:39;;;;;;;2.07;1.90;;;3.60;99.90;;;;;;5039448;28;20190;-60
2024/03/24 00:37:05;;;;;;;3.90;2.07;;;3.60;99.90;;;;;;5040226;28;20230;-60
2024/03/24 00:39:30;;;;;;;5.83;2.00;;;3.60;99.90;;;;;;5041700;28;20783;-60
2024/03/24 00:41:56;;;;;;;2.93;2.43;;;3.50;99.90;;;;;;5045845;28;20235;-61
2024/03/24 00:44:22;;;;;;;3.77;2.20;;;3.60;99.90;;;;;;5042603;28;20271;-60
2024/03/24 00:46:47;;;;;;;1.70;1.60;;;3.50;99.90;;;;;;5040469;28;20200;-60
2024/03/24 00:49:13;;;;;;;2.03;1.83;;;3.50;99.90;;;;;;5018628;28;20276;-60
2024/03/24 00:51:38;;;;;;;2.37;2.00;;;3.50;99.90;;;;;;5046448;28;20182;-60
2024/03/24 00:54:04;;;;;;;3.77;1.93;;;3.50;99.90;;;;;;5044559;28;20179;-60
2024/03/24 00:56:29;;;;;;;3.83;1.90;;;3.50;99.90;;;;;;5039857;28;20555;-60
2024/03/24 00:58:55;;;;;;;3.63;2.23;;;3.50;99.90;;;;;;5042652;28;20199;-61
2024/03/24 01:01:21;;;;;;;4.60;1.97;;;3.50;99.90;;;;;;5044839;28;20747;-61
2024/03/24 01:03:46;;;;;;;3.70;1.93;;;3.50;99.90;;;;;;5020436;28;20184;-60
2024/03/24 01:06:12;;;;;;;11.53;2.20;;;3.40;99.90;;;;;;5044638;28;20232;-62
2024/03/24 01:08:38;;;;;;;1.97;1.80;;;3.40;99.90;;;;;;5022181;28;20175;-59
2024/03/24 01:11:04;;;;;;;2.23;2.03;;;3.40;99.90;;;;;;5032690;28;20214;-60
2024/03/24 01:13:30;;;;;;;1.93;1.73;;;3.40;99.90;;;;;;5039545;28;20452;-60
2024/03/24 01:15:55;;;;;;;2.10;1.90;;;3.40;99.90;;;;;;5044950;28;20438;-60
2024/03/24 01:18:21;;;;;;;1.87;1.77;;;3.40;99.90;;;;;;5046091;28;20632;-60
2024/03/24 01:20:47;;;;;;;4.20;2.20;;;3.40;99.90;;;;;;5041272;28;20171;-60
2024/03/24 01:23:13;;;;;;;2.53;2.07;;;3.40;99.90;;;;;;5042570;28;20172;-60
2024/03/24 01:25:38;;;;;;;2.10;1.77;;;3.40;99.90;;;;;;5040717;28;20172;-60
2024/03/24 01:28:04;;;;;;;3.80;1.80;;;3.40;99.90;;;;;;5044334;28;20437;-60
2024/03/24 01:30:30;;;;;;;2.70;1.90;;;3.40;99.90;;;;;;5037894;28;20187;-60
2024/03/24 01:32:55;;;;;;;2.30;1.83;;;3.40;99.90;;;;;;5037237;28;20274;-61
2024/03/24 01:35:21;;;;;;;2.07;1.97;;;3.40;99.90;;;;;;5037844;28;20770;-60
2024/03/24 01:37:46;;;;;;;2.03;1.70;;;3.40;99.90;;;;;;5042837;28;20216;-61
2024/03/24 01:40:12;;;;;;;2.10;1.97;;;3.40;99.90;;;;;;5043337;28;20186;-60
2024/03/24 01:42:39;;;;;;;3.03;1.90;;;3.40;99.90;;;;;;5022188;28;20277;-59
2024/03/24 01:45:05;;;;;;;2.70;1.70;;;3.40;99.90;;;;;;5047799;28;20456;-60
2024/03/24 01:47:33;;;;;;;2.50;1.80;;;3.40;99.90;;;;;;5043454;28;20249;-61
2024/03/24 01:50:00;;;;;;;1.60;1.50;;;3.40;99.90;;;;;;5043714;28;20644;-61
2024/03/24 01:52:25;;;;;;;3.13;1.77;;;3.40;99.90;;;;;;5044411;28;20928;-61
2024/03/24 01:54:52;;;;;;;2.03;1.83;;;3.40;99.90;;;;;;5039456;28;20420;-61
2024/03/24 01:57:18;;;;;;;2.60;1.97;;;3.40;99.90;;;;;;5027096;28;20457;-61
2024/03/24 01:59:43;;;;;;;1.97;1.80;;;3.40;99.90;;;;;;5048511;28;20465;-61
2024/03/24 02:02:09;;;;;;;3.77;1.97;;;3.30;99.90;;;;;;5048939;28;20431;-60
2024/03/24 02:04:48;;;;;;;1.77;1.67;;;3.30;99.90;;;;;;5042669;28;20566;-60
2024/03/24 02:07:13;;;;;;;1.70;1.60;;;3.30;99.90;;;;;;5048033;28;20215;-60
2024/03/24 02:09:39;;;;;;;1.50;1.40;;;3.30;99.90;;;;;;5044461;28;20491;-61
2024/03/24 02:12:06;;;;;;;2.30;2.10;;;3.20;99.90;;;;;;5046003;28;20188;-61
2024/03/24 02:14:32;;;;;;;1.77;1.67;;;3.20;99.90;;;;;;5039689;28;20176;-60
2024/03/24 02:16:58;;;;;;;2.33;1.67;;;3.10;99.90;;;;;;5047731;28;20627;-60
2024/03/24 02:19:23;;;;;;;1.90;1.80;;;3.10;99.90;;;;;;5041944;28;20207;-60
2024/03/24 02:21:49;;;;;;;2.30;2.20;;;3.10;99.90;;;;;;5050705;28;22112;-61
2024/03/24 02:24:14;;;;;;;2.40;1.70;;;3.10;99.90;;;;;;5048742;28;20198;-60
2024/03/24 02:26:40;;;;;;;2.57;1.90;;;3.10;99.90;;;;;;5041702;28;20196;-60
2024/03/24 02:29:07;;;;;;;2.50;1.90;;;3.10;99.90;;;;;;5024907;28;20175;-61
2024/03/24 02:31:33;;;;;;;2.90;2.00;;;3.10;99.90;;;;;;5040835;28;20829;-60
2024/03/24 02:33:58;;;;;;;2.10;1.90;;;3.00;99.90;;;;;;5036734;28;20445;-60
2024/03/24 02:36:24;;;;;;;2.33;2.10;;;3.10;99.90;;;;;;5044952;28;20280;-61
2024/03/24 02:38:49;;;;;;;2.23;1.97;;;3.10;99.90;;;;;;5045657;28;20587;-61
2024/03/24 02:41:15;;;;;;;2.00;1.90;;;3.00;99.90;;;;;;5045062;28;20171;-60
2024/03/24 02:43:40;;;;;;;2.17;2.07;;;3.10;99.90;;;;;;5045112;28;20179;-61
2024/03/24 02:46:06;;;;;;;4.10;2.30;;;3.10;99.90;;;;;;5039128;28;20631;-60
2024/03/24 02:48:32;;;;;;;2.00;1.90;;;3.10;99.90;;;;;;5036753;28;20210;-61
2024/03/24 02:50:58;;;;;;;2.27;1.93;;;3.10;99.90;;;;;;5045037;28;20571;-61
2024/03/24 02:53:23;;;;;;;5.40;2.20;;;3.10;99.90;;;;;;5040538;28;20186;-60
2024/03/24 02:55:50;;;;;;;3.10;1.77;;;3.10;99.90;;;;;;5040320;28;20434;-61
2024/03/24 02:58:16;;;;;;;1.90;1.70;;;3.10;99.90;;;;;;5025694;28;20226;-60
2024/03/24 03:00:42;;;;;;;2.60;1.53;;;3.20;99.90;;;;;;5042005;28;21148;-60
2024/03/24 03:03:08;;;;;;;1.73;1.63;;;3.20;99.90;;;;;;5028421;28;20427;-61
2024/03/24 03:05:34;;;;;;;1.70;1.60;;;3.20;99.90;;;;;;5047749;28;20437;-61
2024/03/24 03:08:02;;;;;;;3.63;1.60;;;3.20;99.90;;;;;;5046622;28;20456;-60
2024/03/24 03:10:30;;;;;;;1.50;1.40;;;3.20;99.90;;;;;;5042205;28;20176;-61
2024/03/24 03:12:56;;;;;;;1.20;1.20;;;3.20;99.90;;;;;;5045932;28;20525;-60
2024/03/24 03:15:21;;;;;;;1.50;1.40;;;3.20;99.90;;;;;;5024178;28;20509;-61
2024/03/24 03:17:47;;;;;;;1.67;1.57;;;3.20;99.90;;;;;;5040528;28;20999;-61
2024/03/24 03:20:13;;;;;;;1.20;1.20;;;3.20;99.90;;;;;;5042791;28;20204;-60
2024/03/24 03:22:41;;;;;;;1.50;1.40;;;3.20;99.90;;;;;;5033311;28;20263;-60
2024/03/24 03:25:07;;;;;;;1.83;1.40;;;3.30;99.90;;;;;;5043844;28;20179;-61
2024/03/24 03:27:34;;;;;;;2.70;1.37;;;3.30;99.90;;;;;;5043528;28;20432;-62
2024/03/24 03:29:59;;;;;;;1.50;1.40;;;3.30;99.90;;;;;;5049488;28;20519;-61
2024/03/24 03:32:25;;;;;;;1.50;1.40;;;3.30;99.90;;;;;;5041062;28;20583;-60
2024/03/24 03:34:52;;;;;;;2.97;2.40;;;3.30;99.90;;;;;;5046324;28;20543;-61
2024/03/24 03:37:19;;;;;;;2.40;2.20;;;3.30;99.90;;;;;;5039550;28;20195;-59
2024/03/24 03:39:45;;;;;;;3.77;1.80;;;3.30;99.90;;;;;;5048555;28;20465;-60
2024/03/24 03:42:10;;;;;;;1.30;1.23;;;3.30;99.90;;;;;;5046407;28;20428;-60
2024/03/24 03:44:36;;;;;;;3.50;1.63;;;3.30;99.90;;;;;;5045487;28;20760;-60
2024/03/24 03:47:02;;;;;;;1.40;1.40;;;3.30;99.90;;;;;;5020142;28;20274;-60
2024/03/24 03:49:27;;;;;;;1.43;1.37;;;3.30;99.90;;;;;;5043595;28;20175;-61
2024/03/24 03:51:56;;;;;;;1.30;1.30;;;3.30;99.90;;;;;;5041400;28;20198;-60
2024/03/24 03:54:22;;;;;;;1.53;1.30;;;3.30;99.90;;;;;;5042251;28;20580;-61
2024/03/24 03:56:48;;;;;;;1.33;1.20;;;3.30;99.90;;;;;;5037485;28;21157;-60
2024/03/24 03:59:14;;;;;;;2.10;1.20;;;3.30;99.90;;;;;;5040733;28;20446;-60
2024/03/24 04:01:40;;;;;;;2.00;1.40;;;3.40;99.90;;;;;;5037632;28;20200;-60
2024/03/24 04:04:06;;;;;;;1.10;1.10;;;3.40;99.90;;;;;;5041144;28;20425;-61
2024/03/24 04:06:32;;;;;;;1.20;1.20;;;3.40;99.90;;;;;;5036066;28;20478;-59
2024/03/24 04:08:58;;;;;;;5.43;1.20;;;3.40;99.90;;;;;;5040226;28;20453;-61
2024/03/24 04:11:23;;;;;;;1.93;1.70;;;3.40;99.90;;;;;;5041736;28;20226;-60
2024/03/24 04:13:49;;;;;;;2.53;1.40;;;3.40;99.90;;;;;;5041943;28;20182;-60
2024/03/24 04:16:17;;;;;;;1.93;1.47;;;3.40;99.90;;;;;;5043544;28;20566;-60
2024/03/24 04:18:49;;;;;;;1.20;1.20;;;3.30;99.90;;;;;;5034444;28;20200;-61
2024/03/24 04:21:15;;;;;;;1.33;1.30;;;3.30;99.90;;;;;;5040540;28;20944;-61
2024/03/24 04:23:40;;;;;;;1.50;1.40;;;3.30;99.90;;;;;;5033594;28;20462;-60
2024/03/24 04:26:06;;;;;;;1.37;1.30;;;3.30;99.90;;;;;;5044926;28;20456;-60
2024/03/24 04:28:32;;;;;;;1.40;1.30;;;3.30;99.90;;;;;;5024554;28;20194;-60
2024/03/24 04:30:59;;;;;;;2.20;1.53;;;3.30;99.90;;;;;;5040480;28;20175;-60
2024/03/24 04:33:25;;;;;;;2.00;1.30;;;3.30;99.90;;;;;;5045902;28;20207;-61
2024/03/24 04:35:50;;;;;;;1.30;1.20;;;3.30;99.90;;;;;;5041041;28;20431;-61
2024/03/24 04:38:17;;;;;;;1.40;1.30;;;3.30;99.90;;;;;;5037659;28;21011;-60
2024/03/24 04:40:44;;;;;;;3.30;1.80;;;3.30;99.90;;;;;;5035145;28;20218;-61
2024/03/24 04:43:12;;;;;;;1.80;1.57;;;3.30;99.90;;;;;;5021161;28;20413;-60
2024/03/24 04:45:39;;;;;;;1.17;1.17;;;3.30;99.90;;;;;;5043028;28;20441;-61
2024/03/24 04:48:05;;;;;;;1.23;1.20;;;3.30;99.90;;;;;;5042087;28;20452;-60
2024/03/24 04:50:30;;;;;;;1.30;1.20;;;3.30;99.90;;;;;;5036405;28;20429;-60
2024/03/24 04:52:58;;;;;;;1.43;1.30;;;3.30;99.90;;;;;;5041885;28;20476;-60
2024/03/24 04:55:24;;;;;;;1.33;1.23;;;3.20;99.90;;;;;;5045565;28;20178;-60
2024/03/24 04:57:49;;;;;;;2.60;1.40;;;3.30;99.90;;;;;;5042087;28;20445;-61
2024/03/24 05:00:16;;;;;;;1.23;1.20;;;3.30;99.90;;;;;;5035436;28;20200;-61
2024/03/24 05:02:41;;;;;;;1.33;1.23;;;3.20;99.90;;;;;;5040271;28;20171;-61
2024/03/24 05:05:08;;;;;;;2.90;1.30;;;3.20;99.90;;;;;;5045053;28;20414;-60
2024/03/24 05:07:33;;;;;;;2.60;1.23;;;3.20;99.90;;;;;;5042012;28;20803;-61
2024/03/24 05:09:59;;;;;;;1.40;1.30;;;3.30;99.90;;;;;;5044908;28;20430;-58
2024/03/24 05:12:24;;;;;;;1.67;1.23;;;3.20;99.90;;;;;;5044718;28;20261;-60
2024/03/24 05:14:50;;;;;;;1.50;1.30;;;3.20;99.90;;;;;;5042063;28;20619;-61
2024/03/24 05:17:17;;;;;;;2.60;1.30;;;3.20;99.90;;;;;;5038311;28;20227;-61
2024/03/24 05:19:43;;;;;;;1.10;1.10;;;3.20;99.90;;;;;;5044421;28;20216;-60
2024/03/24 05:22:08;;;;;;;1.73;1.27;;;3.30;99.90;;;;;;5026956;28;20418;-60
2024/03/24 05:24:35;;;;;;;1.40;1.30;;;3.20;99.90;;;;;;5044481;28;20419;-61
2024/03/24 05:27:03;;;;;;;1.30;1.20;;;3.20;99.90;;;;;;5032982;28;20323;-61
2024/03/24 05:29:30;;;;;;;1.57;1.40;;;3.20;99.90;;;;;;5049906;28;20561;-60
2024/03/24 05:31:57;;;;;;;1.00;1.00;;;3.20;99.90;;;;;;5047421;28;20492;-61
2024/03/24 05:34:23;;;;;;;1.40;1.30;;;3.20;99.90;;;;;;5048892;28;20916;-60
2024/03/24 05:36:49;;;;;;;2.63;1.10;;;3.20;99.90;;;;;;5045933;28;20449;-60
2024/03/24 05:39:16;;;;;;;1.20;1.10;;;3.30;99.90;;;;;;5043674;28;20873;-61
2024/03/24 05:41:42;;;;;;;1.30;1.20;;;3.30;99.90;;;;;;5043847;28;20167;-60
2024/03/24 05:44:07;;;;;;;2.30;1.40;;;3.30;99.90;;;;;;5043429;28;20416;-61
2024/03/24 05:46:33;;;;;;;1.40;1.30;;;3.30;99.90;;;;;;5048676;28;20601;-60
2024/03/24 05:48:59;;;;;;;1.40;1.20;;;3.30;99.90;;;;;;5051679;28;20176;-61
2024/03/24 05:51:24;;;;;;;1.97;1.43;;;3.30;99.90;;;;;;5044194;28;20259;-61
2024/03/24 05:53:50;;;;;;;2.10;1.60;;;3.30;99.90;;;;;;5046368;28;20186;-61
2024/03/24 05:56:15;;;;;;;1.90;1.40;;;3.30;99.90;;;;;;5026050;28;20179;-60
2024/03/24 05:58:41;;;;;;;1.60;1.50;;;3.30;99.90;;;;;;5042161;28;20195;-60
2024/03/24 06:01:07;;;;;;;2.50;1.07;;;3.30;99.90;;;;;;5047843;28;20670;-61
2024/03/24 06:03:33;;;;;;;1.37;1.27;;;3.30;99.90;;;;;;5049656;28;20252;-60
2024/03/24 06:05:58;;;;;;;1.27;1.17;;;3.30;99.90;;;;;;5045337;28;21090;-61
2024/03/24 06:08:24;;;;;;;3.10;1.20;;;3.30;99.90;;;;;;5042791;28;20220;-60
2024/03/24 06:10:50;;;;;;;1.73;1.20;;;3.20;99.90;;;;;;5045961;28;20264;-61
2024/03/24 06:13:15;;;;;;;2.40;1.33;;;3.20;99.90;;;;;;5031334;28;20741;-61
2024/03/24 06:15:42;;;;;;;1.10;1.10;;;3.30;99.90;;;;;;5045480;28;20194;-59
2024/03/24 06:18:08;;;;;;;1.17;1.00;;;3.30;99.90;;;;;;5030616;28;20206;-61
2024/03/24 06:20:38;;;;;;;1.20;1.10;;;3.20;99.90;;;;;;5049623;28;20496;-61
2024/03/24 06:23:05;;;;;;;1.20;1.10;;;3.20;99.90;;;;;;5041806;28;20229;-61
2024/03/24 06:25:34;;;;;;;1.30;1.30;;;3.20;99.90;;;;;;5042701;28;20417;-60
2024/03/24 06:28:03;;;;;;;1.50;1.23;;;3.20;99.90;;;;;;5040472;28;20488;-60
2024/03/24 06:30:29;;;;;;;1.37;1.27;;;3.10;99.90;;;;;;5047773;28;20432;-60
2024/03/24 06:32:55;;;;;;;1.73;1.37;;;3.20;99.90;;;;;;5028422;28;20505;-61
2024/03/24 06:35:21;;;;;;;1.17;1.17;;;3.30;99.90;;;;;;5043251;28;20523;-60
2024/03/24 06:37:47;;;;;;;2.30;1.23;;;3.40;99.90;;;;;;5049131;28;20467;-60
2024/03/24 06:40:13;;;;;;;1.23;1.23;;;3.50;99.90;;;;;;5049244;28;20461;-60
2024/03/24 06:42:59;;;;;;;1.10;1.10;;;3.60;99.90;;;;;;5043154;28;20868;-60
2024/03/24 06:45:31;;;;;;;1.63;1.40;;;3.70;99.90;;;;;;5042906;28;20199;-60
2024/03/24 06:48:05;;;;;;;1.40;1.30;;;3.80;99.90;;;;;;5028784;28;20821;-60
2024/03/24 06:50:31;;;;;;;1.47;1.37;;;3.70;96.90;;;;;;5041242;28;20540;-61
2024/03/24 06:52:58;;;;;;;1.30;1.20;;;3.70;93.30;;;;;;5042454;28;20426;-60
2024/03/24 06:55:24;;;;;;;1.10;1.10;;;3.70;93.80;;;;;;5047479;28;20505;-60
2024/03/24 06:57:50;;;;;;;4.73;1.27;;;3.60;91.60;;;;;;5044667;28;20840;-60
2024/03/24 07:00:17;;;;;;;3.93;1.37;;;3.60;92.70;;;;;;5040225;28;20453;-60
2024/03/24 07:02:44;;;;;;;1.87;1.40;;;3.50;93.10;;;;;;5047586;28;20167;-61
2024/03/24 07:05:09;;;;;;;1.90;1.37;;;3.50;97.10;;;;;;5041659;28;20468;-60
2024/03/24 07:07:36;;;;;;;5.80;1.50;;;3.60;96.80;;;;;;5042381;28;20976;-60
2024/03/24 07:10:03;;;;;;;1.43;1.33;;;3.60;99.90;;;;;;5044280;28;20183;-60
2024/03/24 07:12:28;;;;;;;1.50;1.40;;;3.70;99.90;;;;;;5031918;28;20433;-60
2024/03/24 07:14:54;;;;;;;1.33;1.23;;;3.80;99.90;;;;;;5047419;28;20409;-60
2024/03/24 07:17:20;;;;;;;6.77;1.83;;;3.90;99.20;;;;;;5048695;28;20683;-60
2024/03/24 07:19:45;;;;;;;2.17;1.60;;;3.80;96.30;;;;;;5026245;28;20207;-60
2024/03/24 07:22:11;;;;;;;3.73;1.87;;;3.80;96.50;;;;;;5040564;28;20253;-60
2024/03/24 07:24:37;;;;;;;1.87;1.30;;;3.80;95.40;;;;;;5048379;28;20237;-61
2024/03/24 07:27:03;;;;;;;4.20;1.37;;;3.80;98.00;;;;;;5042899;28;20485;-59
2024/03/24 07:29:29;;;;;;;1.83;1.60;;;3.80;98.50;;;;;;5038081;28;20176;-61
2024/03/24 07:31:55;;;;;;;3.13;1.50;;;3.80;97.20;;;;;;5040437;28;20432;-60
2024/03/24 07:34:20;;;;;;;3.30;1.80;;;3.80;98.60;;;;;;5042036;28;20437;-60
2024/03/24 07:36:46;;;;;;;1.80;1.63;;;3.80;99.90;;;;;;5049239;28;20198;-60
2024/03/24 07:39:11;;;;;;;3.47;1.50;;;3.90;99.90;;;;;;5039995;28;20277;-60
2024/03/24 07:41:37;;;;;;;1.63;1.50;;;4.00;99.90;;;;;;5045702;28;20175;-60
2024/03/24 07:44:03;;;;;;;2.03;1.50;;;4.10;99.90;;;;;;5047516;28;20183;-60
2024/03/24 07:46:28;;;;;;;2.13;1.90;;;4.10;96.50;;;;;;5040189;28;20582;-60
2024/03/24 07:48:54;;;;;;;4.60;1.93;;;4.10;98.30;;;;;;5040985;28;20179;-60
2024/03/24 07:51:21;;;;;;;2.40;1.40;;;4.10;96.40;;;;;;5045558;28;20229;-60
2024/03/24 07:53:48;;;;;;;2.80;1.70;;;4.10;96.40;;;;;;5035011;28;20227;-60
2024/03/24 07:56:14;;;;;;;3.93;1.30;;;4.10;95.60;;;;;;5044161;28;20420;-58
2024/03/24 07:58:41;;;;;;;3.53;1.20;;;4.10;98.40;;;;;;5037862;28;20455;-59
2024/03/24 08:01:07;;;;;;;4.20;2.03;;;4.10;93.50;;;;;;5039867;28;20414;-60
2024/03/24 08:03:32;;;;;;;1.80;1.63;;;4.10;93.90;;;;;;5041939;28;20440;-60
2024/03/24 08:05:58;;;;;;;1.30;1.20;;;4.10;94.30;;;;;;5046351;28;20195;-60
2024/03/24 08:08:23;;;;;;;1.50;1.40;;;4.10;92.70;;;;;;5044050;28;20227;-60
2024/03/24 08:10:49;;;;;;;3.23;1.30;;;4.20;93.00;;;;;;5042402;28;20179;-60
2024/03/24 08:13:15;;;;;;;5.00;1.63;;;4.20;93.90;;;;;;5040928;28;20202;-60
2024/03/24 08:15:40;;;;;;;2.83;1.40;;;4.30;90.90;;;;;;5044072;28;20179;-60
2024/03/24 08:18:06;;;;;;;1.90;1.50;;;4.50;90.80;;;;;;5043167;28;20202;-60
2024/03/24 08:20:31;;;;;;;1.93;1.50;;;4.70;90.10;;;;;;5032387;28;20191;-60
2024/03/24 08:22:57;;;;;;;3.97;1.30;;;4.90;88.20;;;;;;5041816;28;20172;-61
2024/03/24 08:25:23;;;;;;;4.60;1.97;;;5.00;85.10;;;;;;5035122;28;20715;-61
2024/03/24 08:27:48;;;;;;;3.73;1.70;;;5.10;88.00;;;;;;5040649;28;20194;-60
2024/03/24 08:30:14;;;;;;;1.50;1.27;;;5.20;83.70;;;;;;5043935;28;20547;-61
2024/03/24 08:32:40;;;;;;;1.60;1.50;;;5.20;84.90;;;;;;5024331;28;20176;-60
2024/03/24 08:35:05;;;;;;;1.67;1.17;;;5.10;79.90;;;;;;5043242;28;20205;-60
2024/03/24 08:37:31;;;;;;;3.23;1.50;;;5.00;77.10;;;;;;5046698;28;20274;-61
2024/03/24 08:39:57;;;;;;;1.83;1.43;;;4.80;79.20;;;;;;5039547;28;20694;-60
2024/03/24 08:42:23;;;;;;;1.33;1.20;;;4.60;80.30;;;;;;5025009;28;20441;-61
2024/03/24 08:44:49;;;;;;;1.10;1.00;;;4.40;80.10;;;;;;5030330;28;20192;-60
2024/03/24 08:47:14;;;;;;;1.50;1.40;;;4.20;78.90;;;;;;5042490;28;20518;-60
2024/03/24 08:49:40;;;;;;;1.50;1.40;;;4.10;78.20;;;;;;5039700;28;20266;-60
2024/03/24 08:52:06;;;;;;;2.90;1.40;;;3.90;77.10;;;;;;5036737;28;20188;-60
2024/03/24 08:54:31;;;;;;;1.60;1.50;;;3.80;78.40;;;;;;5040809;28;20198;-60
2024/03/24 08:56:57;;;;;;;2.10;1.20;;;3.80;78.80;;;;;;5043198;28;20202;-61
2024/03/24 08:59:23;;;;;;;1.50;1.27;;;3.90;83.00;;;;;;5044345;28;20215;-61
2024/03/24 09:01:48;;;;;;;1.50;1.40;;;3.90;85.90;;;;;;5044164;28;20246;-61
2024/03/24 09:04:14;;;;;;;1.67;1.30;;;3.90;85.70;;;;;;5041171;28;20668;-61
2024/03/24 09:06:40;;;;;;;3.27;1.20;;;4.00;90.30;;;;;;5047568;28;20475;-60
2024/03/24 09:09:05;;;;;;;1.43;1.13;;;4.00;85.80;;;;;;5036895;28;20658;-62
2024/03/24 09:11:31;;;;;;;1.83;1.27;;;4.10;83.20;;;;;;5041772;28;20175;-60
2024/03/24 09:13:57;;;;;;;1.20;1.10;;;4.10;84.00;;;;;;5039222;28;20658;-61
2024/03/24 09:16:23;;;;;;;2.50;1.80;;;4.30;86.10;;;;;;5038683;28;20292;-60
2024/03/24 09:18:48;;;;;;;1.90;1.50;;;4.40;85.90;;;;;;5038342;28;20205;-61
2024/03/24 09:21:14;;;;;;;1.30;1.20;;;4.50;86.90;;;;;;5020997;28;20426;-60
2024/03/24 09:23:40;;;;;;;1.77;1.30;;;4.60;84.20;;;;;;5038948;28;20243;-60
2024/03/24 09:26:06;;;;;;;2.17;1.60;;;4.60;77.70;;;;;;5046744;28;20221;-60
2024/03/24 09:28:31;;;;;;;1.40;1.30;;;4.70;78.50;;;;;;5041087;28;20488;-60
2024/03/24 09:31:06;;;;;;;1.40;1.30;;;4.70;77.70;;;;;;5037916;28;20183;-61
2024/03/24 09:33:32;;;;;;;1.90;1.40;;;4.70;77.90;;;;;;5040516;28;20191;-60
2024/03/24 09:36:01;;;;;;;2.90;1.50;;;4.80;75.40;;;;;;5038127;28;20442;-60
2024/03/24 09:38:27;;;;;;;3.00;1.40;;;4.80;74.80;;;;;;5036182;28;20218;-60
2024/03/24 09:40:54;;;;;;;1.20;1.10;;;4.90;73.50;;;;;;5037115;28;21067;-62
2024/03/24 09:43:20;;;;;;;2.43;1.37;;;4.90;72.50;;;;;;5037929;28;20217;-59
2024/03/24 09:45:45;;;;;;;2.43;1.50;;;5.10;69.60;;;;;;5036518;28;20492;-63
2024/03/24 09:48:16;;;;;;;1.67;1.57;;;5.30;69.50;;;;;;5038148;28;20849;-60
2024/03/24 09:50:42;;;;;;;2.73;2.00;;;5.40;68.10;;;;;;5033697;28;20180;-62
2024/03/24 09:53:09;;;;;;;2.60;1.67;;;5.40;67.40;;;;;;5020132;28;20835;-62
2024/03/24 09:55:36;;;;;;;2.03;1.90;;;5.50;65.20;;;;;;5035008;28;20434;-62
2024/03/24 09:58:02;;;;;;;1.73;1.37;;;5.50;65.70;;;;;;5035717;28;20531;-63
2024/03/24 10:00:28;;;;;;;2.00;1.47;;;5.50;65.70;;;;;;5034808;28;20564;-62
2024/03/24 10:02:54;;;;;;;3.43;1.60;;;5.50;65.80;;;;;;5036752;28;20445;-62
2024/03/24 10:05:21;;;;;;;3.90;1.73;;;5.50;64.60;;;;;;5043097;28;20424;-62
2024/03/24 10:07:47;;;;;;;2.83;1.70;;;5.50;64.90;;;;;;5041048;28;20539;-63
2024/03/24 10:10:14;;;;;;;2.90;1.90;;;5.50;63.70;;;;;;5043086;28;20441;-63
2024/03/24 10:12:55;;;;;;;3.00;1.80;;;5.60;63.30;;;;;;5025200;28;20433;-62
2024/03/24 10:15:26;;;;;;;3.10;1.60;;;5.60;60.90;;;;;;5023406;28;20609;-63
2024/03/24 10:18:04;;;;;;;2.43;1.93;;;5.60;60.70;;;;;;5042062;28;20468;-62
2024/03/24 10:20:30;;;;;;;2.23;2.03;;;5.50;60.10;;;;;;5039939;28;20486;-62
2024/03/24 10:22:57;;;;;;;2.73;1.73;;;5.50;59.80;;;;;;5038872;28;20975;-64
2024/03/24 10:25:30;;;;;;;2.50;1.50;;;5.50;60.40;;;;;;5036998;28;20417;-63
2024/03/24 10:27:57;;;;;;;3.60;1.90;;;5.60;61.00;;;;;;5042494;28;20438;-63
2024/03/24 10:30:23;;;;;;;3.03;2.20;;;5.60;59.60;;;;;;5041683;28;20441;-63
2024/03/24 10:32:49;;;;;;;2.30;1.90;;;5.60;59.50;;;;;;5041257;28;20433;-63
2024/03/24 10:35:16;;;;;;;2.63;1.87;;;5.60;60.60;;;;;;5043266;28;20437;-62
2024/03/24 10:37:43;;;;;;;3.23;1.87;;;5.60;59.20;;;;;;5040055;28;20540;-63
2024/03/24 10:40:12;;;;;;;4.80;1.90;;;5.60;60.30;;;;;;5045090;28;21082;-63
2024/03/24 10:42:47;;;;;;;2.70;2.20;;;5.60;59.70;;;;;;5040906;28;20530;-63
2024/03/24 10:45:14;;;;;;;3.53;1.93;;;5.60;59.50;;;;;;5043418;28;20429;-65
2024/03/24 10:47:41;;;;;;;1.90;1.70;;;5.60;59.10;;;;;;5021464;28;20495;-63
2024/03/24 10:50:13;;;;;;;2.70;1.63;;;5.50;58.40;;;;;;5041136;28;20947;-63
2024/03/24 10:52:42;;;;;;;11.77;2.80;;;5.50;58.80;;;;;;5041844;28;20428;-63
2024/03/24 10:55:12;;;;;;;4.00;1.87;;;5.50;58.70;;;;;;5042392;28;20430;-63
2024/03/24 10:57:41;;;;;;;2.40;1.93;;;5.40;58.90;;;;;;5041665;28;20472;-63
2024/03/24 11:00:07;;;;;;;3.13;2.37;;;5.40;59.50;;;;;;5041740;28;20461;-63
2024/03/24 11:02:33;;;;;;;2.40;1.90;;;5.40;59.50;;;;;;5040854;28;20429;-62
2024/03/24 11:05:01;;;;;;;2.13;2.03;;;5.30;59.50;;;;;;5044204;28;20846;-61
2024/03/24 11:07:28;;;;;;;3.60;2.00;;;5.30;60.30;;;;;;5041977;28;20194;-64
2024/03/24 11:09:55;;;;;;;2.17;1.97;;;5.40;61.00;;;;;;5022891;28;20492;-63
2024/03/24 11:12:21;;;;;;;5.13;1.87;;;5.50;61.30;;;;;;5045845;28;20418;-64
2024/03/24 11:14:46;;;;;;;5.10;2.20;;;5.80;61.20;;;;;;5024397;28;20425;-63
2024/03/24 11:17:12;;;;;;;4.37;2.50;;;6.20;60.10;;;;;;5041320;28;20826;-64
2024/03/24 11:19:48;;;;;;;2.80;2.03;;;6.50;59.60;;;;;;5039495;28;20219;-62
2024/03/24 11:22:15;;;;;;;1.87;1.63;;;6.80;57.70;;;;;;5024572;28;20609;-64
2024/03/24 11:24:41;;;;;;;6.77;3.40;;;7.10;58.00;;;;;;5039354;28;20434;-64
2024/03/24 11:27:10;;;;;;;1.77;1.67;;;7.30;58.00;;;;;;5041867;28;20453;-63
2024/03/24 11:29:45;;;;;;;3.03;2.00;;;7.30;55.50;;;;;;5040373;28;20187;-63
2024/03/24 11:32:16;;;;;;;3.60;2.10;;;7.10;54.80;;;;;;5024977;28;20429;-63
2024/03/24 11:34:49;;;;;;;2.40;2.20;;;6.90;55.70;;;;;;5042838;28;20433;-63
2024/03/24 11:37:16;;;;;;;2.43;2.23;;;6.70;55.30;;;;;;5040594;28;20487;-63
2024/03/24 11:39:42;;;;;;;4.10;1.90;;;6.60;56.50;;;;;;5042570;28;20470;-63
2024/03/24 11:42:11;;;;;;;5.33;2.23;;;6.60;56.70;;;;;;5041530;28;20860;-62
2024/03/24 11:44:36;;;;;;;3.90;2.30;;;6.60;57.30;;;;;;5041360;28;20411;-63
2024/03/24 11:47:03;;;;;;;7.83;2.30;;;6.70;57.40;;;;;;5037312;28;20477;-64
2024/03/24 11:49:37;;;;;;;2.20;2.00;;;6.70;57.30;;;;;;5039581;28;20186;-62
2024/03/24 11:52:04;;;;;;;2.77;1.70;;;6.60;57.20;;;;;;5035957;28;20444;-63
2024/03/24 11:54:30;;;;;;;2.70;1.90;;;6.50;55.80;;;;;;5039370;28;20449;-61
2024/03/24 11:56:57;;;;;;;5.13;1.80;;;6.30;55.10;;;;;;5039231;28;21035;-62
2024/03/24 11:59:23;;;;;;;2.50;1.80;;;6.20;56.10;;;;;;5039357;28;20523;-62
2024/03/24 12:01:52;;;;;;;3.83;1.60;;;6.10;55.80;;;;;;5042887;28;20499;-63
2024/03/24 12:04:17;;;;;;;2.77;1.83;;;6.10;56.00;;;;;;5042357;28;20422;-63
2024/03/24 12:06:45;;;;;;;5.43;1.70;;;6.20;56.60;;;;;;5041248;28;20503;-62
2024/03/24 12:09:11;;;;;;;2.20;1.67;;;6.10;55.70;;;;;;5038879;28;20565;-62
2024/03/24 12:11:37;;;;;;;4.57;2.17;;;6.20;56.40;;;;;;5039558;28;21256;-62
2024/03/24 12:14:07;;;;;;;4.70;1.87;;;6.30;56.70;;;;;;5041026;28;20456;-64
2024/03/24 12:16:33;;;;;;;3.47;2.27;;;6.50;56.10;;;;;;5040391;28;20535;-60
2024/03/24 12:18:59;;;;;;;2.03;1.83;;;6.60;55.80;;;;;;5038858;28;20464;-60
2024/03/24 12:21:24;;;;;;;2.70;1.93;;;6.70;55.90;;;;;;5043710;28;20430;-59
2024/03/24 12:23:50;;;;;;;5.70;2.17;;;6.70;55.30;;;;;;5041067;28;20635;-60
2024/03/24 12:26:23;;;;;;;6.60;1.80;;;6.90;55.50;;;;;;5042981;28;20178;-58
2024/03/24 12:28:55;;;;;;;3.60;2.27;;;7.30;55.20;;;;;;5040580;28;20299;-59
2024/03/24 12:31:21;;;;;;;6.70;3.07;;;7.50;54.90;;;;;;5021164;28;20439;-59
2024/03/24 12:33:50;;;;;;;6.10;1.60;;;7.60;55.10;;;;;;5033341;28;20966;-61
2024/03/24 12:36:16;;;;;;;1.90;1.53;;;7.40;52.90;;;;;;5040658;28;20434;-61
2024/03/24 12:38:45;;;;;;;3.60;1.70;;;7.20;51.50;;;;;;5023823;28;20469;-60
2024/03/24 12:41:21;;;;;;;3.40;1.40;;;7.00;52.30;;;;;;5021004;28;20512;-60
2024/03/24 12:43:54;;;;;;;3.30;1.70;;;6.80;53.30;;;;;;5036444;28;20810;-61
2024/03/24 12:46:27;;;;;;;2.30;1.30;;;6.70;54.20;;;;;;5040404;28;20429;-61
2024/03/24 12:48:53;;;;;;;2.40;1.63;;;6.60;54.20;;;;;;5039615;28;21031;-62
2024/03/24 12:51:19;;;;;;;2.10;1.50;;;6.50;54.00;;;;;;5040722;28;20473;-62
2024/03/24 12:54:08;;;;;;;1.63;1.53;;;6.40;53.90;;;;;;5022835;28;20448;-62